createdAt,value
2023-05-10T00:07:29.763Z,11.60
2023-05-10T00:17:31.713Z,11.50
2023-05-10T00:27:35.080Z,11.40
2023-05-10T00:37:37.024Z,11.40
2023-05-10T00:47:41.154Z,11.50
2023-05-10T00:57:43.396Z,11.40
2023-05-10T01:07:46.760Z,11.40
2023-05-10T01:17:49.883Z,11.50
2023-05-10T01:28:30.406Z,11.50
2023-05-10T01:38:41.009Z,11.70
2023-05-10T01:48:48.147Z,11.70
2023-05-10T01:58:52.841Z,11.80
2023-05-10T02:08:56.025Z,11.80
2023-05-10T02:19:02.117Z,11.90
2023-05-10T02:29:06.580Z,11.90
2023-05-10T02:39:10.189Z,11.90
2023-05-10T02:49:13.383Z,11.80
2023-05-10T02:59:16.893Z,11.70
2023-05-10T03:09:19.084Z,11.60
2023-05-10T03:19:27.315Z,11.60
2023-05-10T03:29:30.346Z,11.60
2023-05-10T03:39:33.683Z,11.60
2023-05-10T03:49:35.584Z,11.50
2023-05-10T03:59:38.987Z,11.50
2023-05-10T04:09:40.930Z,11.50
2023-05-10T04:19:44.213Z,11.40
2023-05-10T04:29:46.150Z,11.40
2023-05-10T04:39:49.459Z,11.40
2023-05-10T04:49:51.379Z,11.40
2023-05-10T04:59:54.675Z,11.30
2023-05-10T05:09:56.617Z,11.10
2023-05-10T05:20:00.034Z,11.00
2023-05-10T05:30:02.031Z,11.00
2023-05-10T05:40:06.593Z,11.00
2023-05-10T05:50:09.360Z,11.10
2023-05-10T06:00:14.011Z,11.20
2023-05-10T06:10:16.096Z,11.50
2023-05-10T06:20:19.573Z,11.60
2023-05-10T06:30:21.703Z,11.90
2023-05-10T06:40:25.066Z,11.90
2023-05-10T06:50:27.001Z,12.10
2023-05-10T07:00:30.358Z,12.30
2023-05-10T07:10:32.332Z,12.60
2023-05-10T07:20:35.645Z,12.70
2023-05-10T07:30:37.771Z,12.80
2023-05-10T07:40:41.283Z,13.00
2023-05-10T07:50:43.229Z,13.00
2023-05-10T08:00:46.507Z,13.20
2023-05-10T08:10:48.410Z,13.60
2023-05-10T08:20:51.719Z,15.90
2023-05-10T08:30:56.198Z,18.70
2023-05-10T08:41:03.429Z,19.50
2023-05-10T08:51:06.033Z,21.60
2023-05-10T09:01:13.675Z,22.40
2023-05-10T09:11:15.871Z,23.60
2023-05-10T09:21:20.745Z,24.00
2023-05-10T09:31:22.858Z,25.20
2023-05-10T09:41:32.359Z,24.80
2023-05-10T09:51:36.936Z,24.50
2023-05-10T10:01:40.782Z,24.00
2023-05-10T10:11:44.768Z,24.30
2023-05-10T10:21:48.549Z,24.10
2023-05-10T10:31:58.428Z,24.00
2023-05-10T10:42:01.831Z,24.20
2023-05-10T10:52:21.814Z,23.80
2023-05-10T11:02:44.765Z,23.50
2023-05-10T11:12:54.073Z,21.40
2023-05-10T11:22:57.374Z,22.10
2023-05-10T11:32:59.400Z,22.80
2023-05-10T11:43:03.246Z,21.10
2023-05-10T11:53:05.176Z,21.40
2023-05-10T12:03:08.702Z,21.70
2023-05-10T12:13:14.770Z,20.90
2023-05-10T12:23:18.119Z,21.60
2023-05-10T12:33:21.923Z,21.40
2023-05-10T12:43:25.479Z,20.90
2023-05-10T12:53:27.365Z,20.30
2023-05-10T13:03:30.669Z,21.00
2023-05-10T13:13:33.409Z,20.40
2023-05-10T13:23:36.689Z,19.80
2023-05-10T13:33:38.624Z,19.70
2023-05-10T13:43:41.912Z,20.10
2023-05-10T13:53:43.791Z,20.10
2023-05-10T14:03:47.134Z,20.40
2023-05-10T14:13:49.066Z,19.20
2023-05-10T14:23:52.358Z,18.00
2023-05-10T14:33:56.109Z,17.50
2023-05-10T14:43:59.446Z,17.30
2023-05-10T14:54:01.384Z,18.50
2023-05-10T15:04:04.734Z,20.00
2023-05-10T15:14:06.958Z,20.80
2023-05-10T15:24:10.298Z,21.20
2023-05-10T15:34:12.194Z,20.70
2023-05-10T15:44:15.569Z,20.30
2023-05-10T15:54:17.489Z,19.50
2023-05-10T16:04:39.799Z,20.00
2023-05-10T16:14:56.515Z,19.10
2023-05-10T18:39:44.986Z,14.60
2023-05-10T18:49:49.475Z,14.70
2023-05-10T18:59:52.811Z,14.80
2023-05-10T19:09:54.806Z,14.90
2023-05-10T19:19:58.159Z,14.70
2023-05-10T19:30:00.203Z,14.60
2023-05-10T19:40:03.757Z,14.50
2023-05-10T19:50:06.902Z,14.20
2023-05-10T20:00:12.044Z,14.00
2023-05-10T20:10:13.996Z,13.90
2023-05-10T20:20:18.363Z,13.70
2023-05-10T20:30:20.643Z,13.60
2023-05-10T20:40:24.143Z,13.60
2023-05-10T20:50:31.567Z,13.30
2023-05-10T21:00:34.877Z,13.00
2023-05-10T21:10:36.849Z,12.90
2023-05-10T21:20:40.195Z,12.90
2023-05-10T21:30:42.175Z,12.90
2023-05-10T21:40:45.586Z,12.90
2023-05-10T21:50:47.499Z,12.90
2023-05-10T22:00:51.013Z,13.00
2023-05-10T22:10:52.953Z,12.90
2023-05-10T22:20:56.223Z,12.90
2023-05-10T22:30:58.216Z,12.70
2023-05-10T22:41:01.555Z,12.60
2023-05-10T22:51:03.712Z,12.30
2023-05-10T23:01:07.089Z,12.10
2023-05-10T23:11:09.008Z,11.90
2023-05-10T23:21:12.284Z,11.60
2023-05-10T23:31:14.270Z,11.40
2023-05-10T23:41:17.559Z,11.30
2023-05-10T23:51:19.570Z,11.10
